sensor_id;sensor_type;location;lat;lon;timestamp;P1;durP1;ratioP1;P2;durP2;ratioP2
65182;SDS011;51771;51.068;-1.780;2022-10-31T08:32:59;40.22;;;3.67;;
65182;SDS011;51771;51.068;-1.780;2022-10-31T08:35:25;34.08;;;3.72;;
65182;SDS011;51771;51.068;-1.780;2022-10-31T08:37:54;37.28;;;5.40;;
65182;SDS011;51771;51.068;-1.780;2022-10-31T08:40:20;22.08;;;4.55;;
65182;SDS011;51771;51.068;-1.780;2022-10-31T08:42:45;30.50;;;3.72;;
65182;SDS011;51771;51.068;-1.780;2022-10-31T08:45:10;29.37;;;4.63;;
65182;SDS011;51771;51.068;-1.780;2022-10-31T08:47:35;28.73;;;4.80;;
65182;SDS011;51771;51.068;-1.780;2022-10-31T08:50:01;24.00;;;4.00;;
65182;SDS011;51771;51.068;-1.780;2022-10-31T08:52:26;26.33;;;4.13;;
65182;SDS011;51771;51.068;-1.780;2022-10-31T08:54:51;42.05;;;4.07;;
65182;SDS011;51771;51.068;-1.780;2022-10-31T08:57:16;34.28;;;5.25;;
65182;SDS011;51771;51.068;-1.780;2022-10-31T08:59:42;26.47;;;3.40;;
65182;SDS011;51771;51.068;-1.780;2022-10-31T09:02:07;39.20;;;4.20;;
65182;SDS011;51771;51.068;-1.780;2022-10-31T09:04:32;19.63;;;4.40;;
65182;SDS011;51771;51.068;-1.780;2022-10-31T09:06:57;20.63;;;4.10;;
65182;SDS011;51771;51.068;-1.780;2022-10-31T09:09:23;22.13;;;3.35;;
65182;SDS011;51771;51.068;-1.780;2022-10-31T09:11:48;15.67;;;2.73;;
65182;SDS011;51771;51.068;-1.780;2022-10-31T09:14:13;19.77;;;3.23;;
65182;SDS011;51771;51.068;-1.780;2022-10-31T09:16:38;20.73;;;3.40;;
65182;SDS011;51771;51.068;-1.780;2022-10-31T09:19:03;26.43;;;3.20;;
65182;SDS011;51771;51.068;-1.780;2022-10-31T09:21:29;33.22;;;4.38;;
65182;SDS011;51771;51.068;-1.780;2022-10-31T09:23:54;29.57;;;3.67;;
65182;SDS011;51771;51.068;-1.780;2022-10-31T09:26:19;21.07;;;2.70;;
65182;SDS011;51771;51.068;-1.780;2022-10-31T09:28:44;25.73;;;4.20;;
65182;SDS011;51771;51.068;-1.780;2022-10-31T09:31:09;26.05;;;3.05;;
65182;SDS011;51771;51.068;-1.780;2022-10-31T09:33:35;17.17;;;2.63;;
65182;SDS011;51771;51.068;-1.780;2022-10-31T09:36:00;19.10;;;3.57;;
65182;SDS011;51771;51.068;-1.780;2022-10-31T09:38:25;12.70;;;2.60;;
65182;SDS011;51771;51.068;-1.780;2022-10-31T09:51:22;15.93;;;3.10;;
65182;SDS011;51771;51.068;-1.780;2022-10-31T09:56:17;17.95;;;3.92;;
65182;SDS011;51771;51.068;-1.780;2022-10-31T09:58:47;10.15;;;2.58;;
65182;SDS011;51771;51.068;-1.780;2022-10-31T10:06:38;17.15;;;3.28;;
65182;SDS011;51771;51.068;-1.780;2022-10-31T10:09:04;6.43;;;1.90;;
65182;SDS011;51771;51.068;-1.780;2022-10-31T10:14:20;18.05;;;3.15;;
65182;SDS011;51771;51.068;-1.780;2022-10-31T10:16:54;8.65;;;2.40;;
65182;SDS011;51771;51.068;-1.780;2022-10-31T10:19:45;17.50;;;2.55;;
65182;SDS011;51771;51.068;-1.780;2022-10-31T10:24:56;14.98;;;2.35;;
65182;SDS011;51771;51.068;-1.780;2022-10-31T10:29:55;14.50;;;3.07;;
65182;SDS011;51771;51.068;-1.780;2022-10-31T10:32:27;21.05;;;3.75;;
65182;SDS011;51771;51.068;-1.780;2022-10-31T10:35:02;11.70;;;3.63;;
65182;SDS011;51771;51.068;-1.780;2022-10-31T10:37:42;13.15;;;2.25;;
65182;SDS011;51771;51.068;-1.780;2022-10-31T10:40:12;16.50;;;2.92;;
65182;SDS011;51771;51.068;-1.780;2022-10-31T10:42:38;20.25;;;3.58;;
65182;SDS011;51771;51.068;-1.780;2022-10-31T10:45:22;15.90;;;3.22;;
65182;SDS011;51771;51.068;-1.780;2022-10-31T10:48:27;7.18;;;2.95;;
65182;SDS011;51771;51.068;-1.780;2022-10-31T10:50:55;15.75;;;2.58;;
65182;SDS011;51771;51.068;-1.780;2022-10-31T10:53:28;12.60;;;2.97;;
65182;SDS011;51771;51.068;-1.780;2022-10-31T10:58:25;10.13;;;2.03;;
65182;SDS011;51771;51.068;-1.780;2022-10-31T11:00:50;15.90;;;1.83;;
65182;SDS011;51771;51.068;-1.780;2022-10-31T11:03:17;18.30;;;3.22;;
65182;SDS011;51771;51.068;-1.780;2022-10-31T11:05:50;17.58;;;2.00;;
65182;SDS011;51771;51.068;-1.780;2022-10-31T11:11:03;8.45;;;1.90;;
65182;SDS011;51771;51.068;-1.780;2022-10-31T11:13:29;7.68;;;2.08;;
65182;SDS011;51771;51.068;-1.780;2022-10-31T11:18:21;11.03;;;3.13;;
65182;SDS011;51771;51.068;-1.780;2022-10-31T11:20:57;12.23;;;2.30;;
65182;SDS011;51771;51.068;-1.780;2022-10-31T11:23:24;9.45;;;2.03;;
65182;SDS011;51771;51.068;-1.780;2022-10-31T11:25:50;15.50;;;2.35;;
65182;SDS011;51771;51.068;-1.780;2022-10-31T11:28:16;22.98;;;5.18;;
65182;SDS011;51771;51.068;-1.780;2022-10-31T11:35:47;5.38;;;1.33;;
65182;SDS011;51771;51.068;-1.780;2022-10-31T11:38:20;9.25;;;2.20;;
65182;SDS011;51771;51.068;-1.780;2022-10-31T11:40:59;9.30;;;2.25;;
65182;SDS011;51771;51.068;-1.780;2022-10-31T11:43:25;12.18;;;2.40;;
65182;SDS011;51771;51.068;-1.780;2022-10-31T11:45:51;15.27;;;1.98;;
65182;SDS011;51771;51.068;-1.780;2022-10-31T11:48:17;13.68;;;3.10;;
65182;SDS011;51771;51.068;-1.780;2022-10-31T11:50:47;7.90;;;2.00;;
65182;SDS011;51771;51.068;-1.780;2022-10-31T11:53:20;9.75;;;1.88;;
65182;SDS011;51771;51.068;-1.780;2022-10-31T11:55:46;15.95;;;2.80;;
65182;SDS011;51771;51.068;-1.780;2022-10-31T11:58:22;9.43;;;2.25;;
65182;SDS011;51771;51.068;-1.780;2022-10-31T12:00:51;8.40;;;2.20;;
65182;SDS011;51771;51.068;-1.780;2022-10-31T12:08:19;21.77;;;4.55;;
65182;SDS011;51771;51.068;-1.780;2022-10-31T12:15:55;9.10;;;1.70;;
65182;SDS011;51771;51.068;-1.780;2022-10-31T12:21:04;5.00;;;1.70;;
65182;SDS011;51771;51.068;-1.780;2022-10-31T12:38:46;10.43;;;1.80;;
65182;SDS011;51771;51.068;-1.780;2022-10-31T12:41:25;5.55;;;1.50;;
65182;SDS011;51771;51.068;-1.780;2022-10-31T12:43:57;8.95;;;2.10;;
65182;SDS011;51771;51.068;-1.780;2022-10-31T12:47:12;4.85;;;1.38;;
65182;SDS011;51771;51.068;-1.780;2022-10-31T12:57:39;5.72;;;1.67;;
65182;SDS011;51771;51.068;-1.780;2022-10-31T13:00:12;8.23;;;1.83;;
65182;SDS011;51771;51.068;-1.780;2022-10-31T13:02:43;9.60;;;2.58;;
65182;SDS011;51771;51.068;-1.780;2022-10-31T13:05:14;14.45;;;2.80;;
65182;SDS011;51771;51.068;-1.780;2022-10-31T13:07:44;11.63;;;1.83;;
65182;SDS011;51771;51.068;-1.780;2022-10-31T13:12:35;12.80;;;2.30;;
65182;SDS011;51771;51.068;-1.780;2022-10-31T13:15:17;5.82;;;1.33;;
65182;SDS011;51771;51.068;-1.780;2022-10-31T13:17:45;16.63;;;3.15;;
65182;SDS011;51771;51.068;-1.780;2022-10-31T13:22:39;11.32;;;2.40;;
65182;SDS011;51771;51.068;-1.780;2022-10-31T13:25:17;9.65;;;2.10;;
65182;SDS011;51771;51.068;-1.780;2022-10-31T13:30:22;14.70;;;5.38;;
65182;SDS011;51771;51.068;-1.780;2022-10-31T13:38:05;15.93;;;4.28;;
65182;SDS011;51771;51.068;-1.780;2022-10-31T13:40:35;9.77;;;2.15;;
65182;SDS011;51771;51.068;-1.780;2022-10-31T13:43:05;13.77;;;4.20;;
65182;SDS011;51771;51.068;-1.780;2022-10-31T13:45:31;6.88;;;3.83;;
65182;SDS011;51771;51.068;-1.780;2022-10-31T13:50:40;10.57;;;4.30;;
65182;SDS011;51771;51.068;-1.780;2022-10-31T13:53:10;12.52;;;4.00;;
65182;SDS011;51771;51.068;-1.780;2022-10-31T13:55:45;24.55;;;6.45;;
65182;SDS011;51771;51.068;-1.780;2022-10-31T13:58:27;14.68;;;5.82;;
65182;SDS011;51771;51.068;-1.780;2022-10-31T14:03:27;14.23;;;3.30;;
65182;SDS011;51771;51.068;-1.780;2022-10-31T14:05:53;10.55;;;3.17;;
65182;SDS011;51771;51.068;-1.780;2022-10-31T14:08:20;15.77;;;2.83;;
65182;SDS011;51771;51.068;-1.780;2022-10-31T14:10:47;11.45;;;3.35;;
65182;SDS011;51771;51.068;-1.780;2022-10-31T14:13:15;9.52;;;1.83;;
65182;SDS011;51771;51.068;-1.780;2022-10-31T14:15:43;8.77;;;2.88;;
65182;SDS011;51771;51.068;-1.780;2022-10-31T14:18:28;9.30;;;3.85;;
65182;SDS011;51771;51.068;-1.780;2022-10-31T14:20:55;6.60;;;3.13;;
65182;SDS011;51771;51.068;-1.780;2022-10-31T14:23:39;15.17;;;3.30;;
65182;SDS011;51771;51.068;-1.780;2022-10-31T14:29:01;6.32;;;3.22;;
65182;SDS011;51771;51.068;-1.780;2022-10-31T14:31:32;13.50;;;4.15;;
65182;SDS011;51771;51.068;-1.780;2022-10-31T14:46:48;13.83;;;4.27;;
65182;SDS011;51771;51.068;-1.780;2022-10-31T14:49:16;6.75;;;3.00;;
65182;SDS011;51771;51.068;-1.780;2022-10-31T14:51:44;16.60;;;2.78;;
65182;SDS011;51771;51.068;-1.780;2022-10-31T14:54:12;11.90;;;3.58;;
65182;SDS011;51771;51.068;-1.780;2022-10-31T14:56:46;3.50;;;2.40;;
65182;SDS011;51771;51.068;-1.780;2022-10-31T14:59:14;8.13;;;1.80;;
65182;SDS011;51771;51.068;-1.780;2022-10-31T15:01:40;10.82;;;2.60;;
65182;SDS011;51771;51.068;-1.780;2022-10-31T15:04:15;11.90;;;2.30;;
65182;SDS011;51771;51.068;-1.780;2022-10-31T15:06:42;4.63;;;1.63;;
65182;SDS011;51771;51.068;-1.780;2022-10-31T15:09:21;7.15;;;1.58;;
65182;SDS011;51771;51.068;-1.780;2022-10-31T15:11:47;8.23;;;2.78;;
65182;SDS011;51771;51.068;-1.780;2022-10-31T15:14:22;5.87;;;1.93;;
65182;SDS011;51771;51.068;-1.780;2022-10-31T15:16:48;4.75;;;2.08;;
65182;SDS011;51771;51.068;-1.780;2022-10-31T15:19:15;7.28;;;2.38;;
65182;SDS011;51771;51.068;-1.780;2022-10-31T15:21:42;3.03;;;1.45;;
65182;SDS011;51771;51.068;-1.780;2022-10-31T15:24:10;11.93;;;2.72;;
65182;SDS011;51771;51.068;-1.780;2022-10-31T15:26:37;9.43;;;2.70;;
65182;SDS011;51771;51.068;-1.780;2022-10-31T15:29:10;1.88;;;1.10;;
65182;SDS011;51771;51.068;-1.780;2022-10-31T15:31:36;13.00;;;1.83;;
65182;SDS011;51771;51.068;-1.780;2022-10-31T15:34:46;11.85;;;1.95;;
65182;SDS011;51771;51.068;-1.780;2022-10-31T15:36:49;18.92;;;3.05;;
65182;SDS011;51771;51.068;-1.780;2022-10-31T15:39:15;15.20;;;3.08;;
65182;SDS011;51771;51.068;-1.780;2022-10-31T15:41:54;10.90;;;3.30;;
65182;SDS011;51771;51.068;-1.780;2022-10-31T15:44:24;7.60;;;2.97;;
65182;SDS011;51771;51.068;-1.780;2022-10-31T15:49:26;11.77;;;2.28;;
65182;SDS011;51771;51.068;-1.780;2022-10-31T15:51:52;3.85;;;1.88;;
65182;SDS011;51771;51.068;-1.780;2022-10-31T15:54:17;13.05;;;2.55;;
65182;SDS011;51771;51.068;-1.780;2022-10-31T15:56:42;15.43;;;3.50;;
65182;SDS011;51771;51.068;-1.780;2022-10-31T15:59:11;5.63;;;1.52;;
65182;SDS011;51771;51.068;-1.780;2022-10-31T16:01:39;5.50;;;1.92;;
65182;SDS011;51771;51.068;-1.780;2022-10-31T16:04:19;7.07;;;2.23;;
65182;SDS011;51771;51.068;-1.780;2022-10-31T16:06:45;7.88;;;2.15;;
65182;SDS011;51771;51.068;-1.780;2022-10-31T16:09:21;17.80;;;2.72;;
65182;SDS011;51771;51.068;-1.780;2022-10-31T16:11:47;8.68;;;2.80;;
65182;SDS011;51771;51.068;-1.780;2022-10-31T16:16:42;16.77;;;2.03;;
65182;SDS011;51771;51.068;-1.780;2022-10-31T16:19:13;14.95;;;2.65;;
65182;SDS011;51771;51.068;-1.780;2022-10-31T16:21:40;6.80;;;2.03;;
65182;SDS011;51771;51.068;-1.780;2022-10-31T16:24:17;12.15;;;2.47;;
65182;SDS011;51771;51.068;-1.780;2022-10-31T16:26:51;7.03;;;2.50;;
65182;SDS011;51771;51.068;-1.780;2022-10-31T16:29:27;5.60;;;1.73;;
65182;SDS011;51771;51.068;-1.780;2022-10-31T16:31:53;8.30;;;2.20;;
65182;SDS011;51771;51.068;-1.780;2022-10-31T16:34:22;11.53;;;2.50;;
65182;SDS011;51771;51.068;-1.780;2022-10-31T16:36:47;11.20;;;3.42;;
65182;SDS011;51771;51.068;-1.780;2022-10-31T16:39:13;11.13;;;2.83;;
65182;SDS011;51771;51.068;-1.780;2022-10-31T16:41:39;11.93;;;2.88;;
65182;SDS011;51771;51.068;-1.780;2022-10-31T16:44:06;22.00;;;3.47;;
65182;SDS011;51771;51.068;-1.780;2022-10-31T16:46:36;7.72;;;2.75;;
65182;SDS011;51771;51.068;-1.780;2022-10-31T16:49:02;13.35;;;2.80;;
65182;SDS011;51771;51.068;-1.780;2022-10-31T16:51:27;12.43;;;3.83;;
65182;SDS011;51771;51.068;-1.780;2022-10-31T16:53:52;15.10;;;3.17;;
65182;SDS011;51771;51.068;-1.780;2022-10-31T16:56:21;10.77;;;3.55;;
65182;SDS011;51771;51.068;-1.780;2022-10-31T16:58:48;13.65;;;2.75;;
65182;SDS011;51771;51.068;-1.780;2022-10-31T17:01:14;12.38;;;4.10;;
65182;SDS011;51771;51.068;-1.780;2022-10-31T17:03:39;8.33;;;2.30;;
65182;SDS011;51771;51.068;-1.780;2022-10-31T17:06:04;14.55;;;4.63;;
65182;SDS011;51771;51.068;-1.780;2022-10-31T17:08:30;12.77;;;3.15;;
65182;SDS011;51771;51.068;-1.780;2022-10-31T17:10:56;18.07;;;3.77;;
65182;SDS011;51771;51.068;-1.780;2022-10-31T17:13:22;5.07;;;2.53;;
65182;SDS011;51771;51.068;-1.780;2022-10-31T17:15:52;10.23;;;3.40;;
65182;SDS011;51771;51.068;-1.780;2022-10-31T17:18:18;11.85;;;3.83;;
65182;SDS011;51771;51.068;-1.780;2022-10-31T17:20:44;19.50;;;5.10;;
65182;SDS011;51771;51.068;-1.780;2022-10-31T17:23:10;12.00;;;3.60;;
65182;SDS011;51771;51.068;-1.780;2022-10-31T17:25:35;7.22;;;4.03;;
65182;SDS011;51771;51.068;-1.780;2022-10-31T17:28:01;14.18;;;4.72;;
65182;SDS011;51771;51.068;-1.780;2022-10-31T17:30:26;11.10;;;4.68;;
65182;SDS011;51771;51.068;-1.780;2022-10-31T17:32:51;13.85;;;5.85;;
65182;SDS011;51771;51.068;-1.780;2022-10-31T17:35:17;9.77;;;4.90;;
65182;SDS011;51771;51.068;-1.780;2022-10-31T17:37:42;16.13;;;6.47;;
65182;SDS011;51771;51.068;-1.780;2022-10-31T17:40:08;20.80;;;7.38;;
65182;SDS011;51771;51.068;-1.780;2022-10-31T17:42:34;14.52;;;6.03;;
65182;SDS011;51771;51.068;-1.780;2022-10-31T17:44:59;15.60;;;6.93;;
65182;SDS011;51771;51.068;-1.780;2022-10-31T17:47:25;27.75;;;7.50;;
65182;SDS011;51771;51.068;-1.780;2022-10-31T17:49:50;29.43;;;7.67;;
65182;SDS011;51771;51.068;-1.780;2022-10-31T17:52:17;24.67;;;7.93;;
65182;SDS011;51771;51.068;-1.780;2022-10-31T17:54:42;24.42;;;9.40;;
65182;SDS011;51771;51.068;-1.780;2022-10-31T17:57:07;29.57;;;9.63;;
65182;SDS011;51771;51.068;-1.780;2022-10-31T17:59:32;26.02;;;10.35;;
65182;SDS011;51771;51.068;-1.780;2022-10-31T18:01:58;22.15;;;10.15;;
65182;SDS011;51771;51.068;-1.780;2022-10-31T18:04:24;51.60;;;12.52;;
65182;SDS011;51771;51.068;-1.780;2022-10-31T18:06:50;25.00;;;11.75;;
65182;SDS011;51771;51.068;-1.780;2022-10-31T18:09:15;59.40;;;13.40;;
65182;SDS011;51771;51.068;-1.780;2022-10-31T18:11:40;34.90;;;13.18;;
65182;SDS011;51771;51.068;-1.780;2022-10-31T18:14:06;28.83;;;11.30;;
65182;SDS011;51771;51.068;-1.780;2022-10-31T18:16:32;43.25;;;16.05;;
65182;SDS011;51771;51.068;-1.780;2022-10-31T18:18:58;30.15;;;13.85;;
65182;SDS011;51771;51.068;-1.780;2022-10-31T18:21:24;55.13;;;14.95;;
65182;SDS011;51771;51.068;-1.780;2022-10-31T18:23:53;42.60;;;16.58;;
65182;SDS011;51771;51.068;-1.780;2022-10-31T18:26:19;53.95;;;17.08;;
65182;SDS011;51771;51.068;-1.780;2022-10-31T18:28:44;61.45;;;14.82;;
65182;SDS011;51771;51.068;-1.780;2022-10-31T18:31:09;37.43;;;13.63;;
65182;SDS011;51771;51.068;-1.780;2022-10-31T18:33:35;41.60;;;13.30;;
65182;SDS011;51771;51.068;-1.780;2022-10-31T18:36:05;26.10;;;13.15;;
65182;SDS011;51771;51.068;-1.780;2022-10-31T18:38:30;41.00;;;13.30;;
65182;SDS011;51771;51.068;-1.780;2022-10-31T18:40:55;33.10;;;14.07;;
65182;SDS011;51771;51.068;-1.780;2022-10-31T18:43:21;34.10;;;13.20;;
65182;SDS011;51771;51.068;-1.780;2022-10-31T18:45:46;38.80;;;14.70;;
65182;SDS011;51771;51.068;-1.780;2022-10-31T18:48:12;39.83;;;15.15;;
65182;SDS011;51771;51.068;-1.780;2022-10-31T18:50:38;38.85;;;15.15;;
65182;SDS011;51771;51.068;-1.780;2022-10-31T18:53:03;38.63;;;14.05;;
65182;SDS011;51771;51.068;-1.780;2022-10-31T18:55:29;32.63;;;14.13;;
65182;SDS011;51771;51.068;-1.780;2022-10-31T18:57:54;28.57;;;13.47;;
65182;SDS011;51771;51.068;-1.780;2022-10-31T19:00:19;31.03;;;12.77;;
65182;SDS011;51771;51.068;-1.780;2022-10-31T19:02:45;33.80;;;13.52;;
65182;SDS011;51771;51.068;-1.780;2022-10-31T19:05:10;36.50;;;14.75;;
65182;SDS011;51771;51.068;-1.780;2022-10-31T19:07:35;38.30;;;13.57;;
65182;SDS011;51771;51.068;-1.780;2022-10-31T19:10:00;40.17;;;13.80;;
65182;SDS011;51771;51.068;-1.780;2022-10-31T19:12:26;32.57;;;13.73;;
65182;SDS011;51771;51.068;-1.780;2022-10-31T19:14:51;36.00;;;13.87;;
65182;SDS011;51771;51.068;-1.780;2022-10-31T19:17:16;34.50;;;13.98;;
65182;SDS011;51771;51.068;-1.780;2022-10-31T19:19:42;38.08;;;13.10;;
65182;SDS011;51771;51.068;-1.780;2022-10-31T19:22:07;30.13;;;14.50;;
65182;SDS011;51771;51.068;-1.780;2022-10-31T19:24:33;44.00;;;16.43;;
65182;SDS011;51771;51.068;-1.780;2022-10-31T19:26:58;48.13;;;16.57;;
65182;SDS011;51771;51.068;-1.780;2022-10-31T19:29:24;46.03;;;16.33;;
65182;SDS011;51771;51.068;-1.780;2022-10-31T19:31:50;35.90;;;15.35;;
65182;SDS011;51771;51.068;-1.780;2022-10-31T19:34:15;25.23;;;13.13;;
65182;SDS011;51771;51.068;-1.780;2022-10-31T19:36:40;35.60;;;13.47;;
65182;SDS011;51771;51.068;-1.780;2022-10-31T19:39:07;28.35;;;13.40;;
65182;SDS011;51771;51.068;-1.780;2022-10-31T19:41:32;45.60;;;14.10;;
65182;SDS011;51771;51.068;-1.780;2022-10-31T19:43:58;44.27;;;13.37;;
65182;SDS011;51771;51.068;-1.780;2022-10-31T19:46:23;43.00;;;14.00;;
65182;SDS011;51771;51.068;-1.780;2022-10-31T19:48:49;33.38;;;13.38;;
65182;SDS011;51771;51.068;-1.780;2022-10-31T19:51:15;34.77;;;13.40;;
65182;SDS011;51771;51.068;-1.780;2022-10-31T19:53:40;47.00;;;13.25;;
65182;SDS011;51771;51.068;-1.780;2022-10-31T19:56:13;27.95;;;12.35;;
65182;SDS011;51771;51.068;-1.780;2022-10-31T19:58:38;19.88;;;10.57;;
65182;SDS011;51771;51.068;-1.780;2022-10-31T20:01:07;37.72;;;12.40;;
65182;SDS011;51771;51.068;-1.780;2022-10-31T20:03:33;31.95;;;11.55;;
65182;SDS011;51771;51.068;-1.780;2022-10-31T20:06:01;37.88;;;13.40;;
65182;SDS011;51771;51.068;-1.780;2022-10-31T20:08:26;36.63;;;12.85;;
65182;SDS011;51771;51.068;-1.780;2022-10-31T20:10:56;42.60;;;13.75;;
65182;SDS011;51771;51.068;-1.780;2022-10-31T20:13:22;24.70;;;11.32;;
65182;SDS011;51771;51.068;-1.780;2022-10-31T20:15:47;24.92;;;10.93;;
65182;SDS011;51771;51.068;-1.780;2022-10-31T20:18:13;30.48;;;11.85;;
65182;SDS011;51771;51.068;-1.780;2022-10-31T20:20:38;44.70;;;11.38;;
65182;SDS011;51771;51.068;-1.780;2022-10-31T20:23:03;30.63;;;9.47;;
65182;SDS011;51771;51.068;-1.780;2022-10-31T20:25:28;23.10;;;9.57;;
65182;SDS011;51771;51.068;-1.780;2022-10-31T20:27:56;24.83;;;8.80;;
65182;SDS011;51771;51.068;-1.780;2022-10-31T20:30:21;24.87;;;8.70;;
65182;SDS011;51771;51.068;-1.780;2022-10-31T20:32:46;20.23;;;7.90;;
65182;SDS011;51771;51.068;-1.780;2022-10-31T20:35:12;29.53;;;7.80;;
65182;SDS011;51771;51.068;-1.780;2022-10-31T20:37:37;25.37;;;7.50;;
65182;SDS011;51771;51.068;-1.780;2022-10-31T20:40:02;32.10;;;5.80;;
65182;SDS011;51771;51.068;-1.780;2022-10-31T20:42:27;25.05;;;5.22;;
65182;SDS011;51771;51.068;-1.780;2022-10-31T20:44:53;16.50;;;5.07;;
65182;SDS011;51771;51.068;-1.780;2022-10-31T20:47:18;10.13;;;5.30;;
65182;SDS011;51771;51.068;-1.780;2022-10-31T20:49:43;19.70;;;5.77;;
65182;SDS011;51771;51.068;-1.780;2022-10-31T20:52:08;19.20;;;6.80;;
65182;SDS011;51771;51.068;-1.780;2022-10-31T20:54:34;18.25;;;5.88;;
65182;SDS011;51771;51.068;-1.780;2022-10-31T20:56:59;16.27;;;6.17;;
65182;SDS011;51771;51.068;-1.780;2022-10-31T20:59:24;20.65;;;5.75;;
65182;SDS011;51771;51.068;-1.780;2022-10-31T21:01:49;10.80;;;4.83;;
65182;SDS011;51771;51.068;-1.780;2022-10-31T21:04:15;19.67;;;6.33;;
65182;SDS011;51771;51.068;-1.780;2022-10-31T21:06:40;28.43;;;7.80;;
65182;SDS011;51771;51.068;-1.780;2022-10-31T21:09:05;22.93;;;5.27;;
65182;SDS011;51771;51.068;-1.780;2022-10-31T21:11:31;5.97;;;3.40;;
65182;SDS011;51771;51.068;-1.780;2022-10-31T21:13:57;7.37;;;2.67;;
65182;SDS011;51771;51.068;-1.780;2022-10-31T21:16:23;7.80;;;2.70;;
65182;SDS011;51771;51.068;-1.780;2022-10-31T21:18:49;11.15;;;2.85;;
65182;SDS011;51771;51.068;-1.780;2022-10-31T21:21:16;6.03;;;2.05;;
65182;SDS011;51771;51.068;-1.780;2022-10-31T21:23:41;3.63;;;1.33;;
65182;SDS011;51771;51.068;-1.780;2022-10-31T21:26:10;2.42;;;1.45;;
65182;SDS011;51771;51.068;-1.780;2022-10-31T21:28:35;2.80;;;1.73;;
65182;SDS011;51771;51.068;-1.780;2022-10-31T21:31:03;6.70;;;1.50;;
65182;SDS011;51771;51.068;-1.780;2022-10-31T21:33:29;4.18;;;1.20;;
65182;SDS011;51771;51.068;-1.780;2022-10-31T21:35:54;4.07;;;1.43;;
65182;SDS011;51771;51.068;-1.780;2022-10-31T21:38:19;9.07;;;1.80;;
65182;SDS011;51771;51.068;-1.780;2022-10-31T21:40:44;6.40;;;1.63;;
65182;SDS011;51771;51.068;-1.780;2022-10-31T21:43:10;16.87;;;2.40;;
65182;SDS011;51771;51.068;-1.780;2022-10-31T21:45:35;11.80;;;1.67;;
65182;SDS011;51771;51.068;-1.780;2022-10-31T21:48:00;11.50;;;2.65;;
65182;SDS011;51771;51.068;-1.780;2022-10-31T21:50:26;7.95;;;1.60;;
65182;SDS011;51771;51.068;-1.780;2022-10-31T21:52:51;8.68;;;2.65;;
65182;SDS011;51771;51.068;-1.780;2022-10-31T21:55:16;19.87;;;3.47;;
65182;SDS011;51771;51.068;-1.780;2022-10-31T21:57:42;22.17;;;3.50;;
65182;SDS011;51771;51.068;-1.780;2022-10-31T22:00:07;7.13;;;1.80;;
65182;SDS011;51771;51.068;-1.780;2022-10-31T22:02:33;24.65;;;4.57;;
65182;SDS011;51771;51.068;-1.780;2022-10-31T22:04:58;14.63;;;3.25;;
65182;SDS011;51771;51.068;-1.780;2022-10-31T22:07:23;21.52;;;3.10;;
65182;SDS011;51771;51.068;-1.780;2022-10-31T22:09:48;15.83;;;4.17;;
65182;SDS011;51771;51.068;-1.780;2022-10-31T22:12:14;30.77;;;3.80;;
65182;SDS011;51771;51.068;-1.780;2022-10-31T22:14:39;17.43;;;3.30;;
65182;SDS011;51771;51.068;-1.780;2022-10-31T22:17:04;16.67;;;3.42;;
65182;SDS011;51771;51.068;-1.780;2022-10-31T22:19:29;28.17;;;3.67;;
65182;SDS011;51771;51.068;-1.780;2022-10-31T22:21:55;25.63;;;3.30;;
65182;SDS011;51771;51.068;-1.780;2022-10-31T22:24:20;22.77;;;3.83;;
65182;SDS011;51771;51.068;-1.780;2022-10-31T22:26:45;16.40;;;2.95;;
65182;SDS011;51771;51.068;-1.780;2022-10-31T22:29:12;22.80;;;3.00;;
